createdAt,value
2018-05-26T00:01:01.382Z,101899.48
2018-05-26T00:03:30.449Z,101896.94
2018-05-26T00:05:59.487Z,101900.52
2018-05-26T00:08:27.942Z,101901.20
2018-05-26T00:10:56.056Z,101903.92
2018-05-26T00:13:25.314Z,101903.42
2018-05-26T00:15:53.445Z,101909.97
2018-05-26T00:18:21.549Z,101907.68
2018-05-26T00:20:49.667Z,101902.27
2018-05-26T00:23:17.824Z,101908.00
2018-05-26T00:25:45.895Z,101910.58
2018-05-26T00:28:19.572Z,101906.71
2018-05-26T00:30:47.682Z,101905.89
2018-05-26T00:33:15.780Z,101906.61
2018-05-26T00:35:44.716Z,101905.42
2018-05-26T00:38:13.704Z,101906.06
2018-05-26T00:40:41.825Z,101910.33
2018-05-26T00:43:10.800Z,101905.25
2018-05-26T00:45:39.149Z,101906.06
2018-05-26T00:48:07.261Z,101908.75
2018-05-26T00:50:35.379Z,101903.27
2018-05-26T00:53:03.497Z,101904.64
2018-05-26T00:55:33.237Z,101904.45
2018-05-26T00:58:01.456Z,101912.43
2018-05-26T01:00:29.614Z,101905.48
2018-05-26T01:02:57.712Z,101904.57
2018-05-26T01:05:25.804Z,101902.97
2018-05-26T01:07:53.965Z,101904.97
2018-05-26T01:10:22.123Z,101903.28
2018-05-26T01:12:50.227Z,101893.41
2018-05-26T01:15:18.361Z,101889.05
2018-05-26T01:17:46.809Z,101894.62
2018-05-26T01:20:14.937Z,101890.05
2018-05-26T01:22:43.520Z,101887.15
2018-05-26T01:25:11.639Z,101888.30
2018-05-26T01:27:39.867Z,101891.04
2018-05-26T01:30:08.024Z,101893.58
2018-05-26T01:32:36.145Z,101890.88
2018-05-26T01:35:05.259Z,101889.50
2018-05-26T01:37:33.373Z,101889.06
2018-05-26T01:40:01.504Z,101884.73
2018-05-26T01:55:29.631Z,101873.22
2018-05-26T01:57:57.743Z,101872.91
2018-05-26T02:00:25.841Z,101872.84
2018-05-26T02:02:54.005Z,101880.51
2018-05-26T02:05:22.571Z,101875.56
2018-05-26T02:07:56.186Z,101874.33
2018-05-26T02:10:24.282Z,101869.60
2018-05-26T02:12:53.027Z,101866.23
2018-05-26T02:15:22.093Z,101870.63
2018-05-26T02:17:50.276Z,101869.38
2018-05-26T02:20:19.177Z,101862.34
2018-05-26T02:22:47.295Z,101862.86
2018-05-26T02:25:15.405Z,101864.17
2018-05-26T02:27:43.529Z,101858.13
2018-05-26T02:30:12.235Z,101861.02
2018-05-26T02:32:41.374Z,101864.72
2018-05-26T02:35:09.494Z,101860.59
2018-05-26T02:37:37.591Z,101856.08
2018-05-26T02:40:06.442Z,101858.61
2018-05-26T02:42:34.581Z,101862.09
2018-05-26T02:45:02.690Z,101863.02
2018-05-26T02:47:30.800Z,101858.88
2018-05-26T02:49:58.960Z,101862.53
2018-05-26T02:52:32.639Z,101861.29
2018-05-26T02:55:00.766Z,101864.16
2018-05-26T02:57:28.874Z,101873.83
2018-05-26T02:59:56.987Z,101871.73
2018-05-26T03:02:25.084Z,101870.03
2018-05-26T03:04:58.787Z,101871.67
2018-05-26T03:07:32.438Z,101877.47
2018-05-26T03:10:06.856Z,101868.84
2018-05-26T03:12:40.623Z,101872.74
2018-05-26T03:15:08.184Z,101867.64
2018-05-26T03:17:40.687Z,101873.14
2018-05-26T03:20:08.811Z,101869.67
2018-05-26T03:22:36.979Z,101876.56
2018-05-26T03:38:01.124Z,101890.63
2018-05-26T03:40:29.253Z,101889.22
2018-05-26T03:42:57.363Z,101890.73
2018-05-26T03:45:25.490Z,101887.20
2018-05-26T03:47:53.645Z,101885.52
2018-05-26T03:50:21.747Z,101889.42
2018-05-26T03:52:49.881Z,101891.94
2018-05-26T03:55:38.711Z,101902.30
2018-05-26T03:58:18.665Z,101900.86
2018-05-26T04:13:46.802Z,101899.97
2018-05-26T04:16:15.785Z,101900.89
2018-05-26T04:18:44.091Z,101902.38
2018-05-26T04:21:12.249Z,101902.58
2018-05-26T04:23:40.388Z,101901.77
2018-05-26T04:26:08.491Z,101912.21
2018-05-26T04:38:21.669Z,101916.73
2018-05-26T04:40:49.806Z,101913.27
2018-05-26T04:43:17.917Z,101911.55
2018-05-26T04:58:46.395Z,101921.25
2018-05-26T05:01:14.527Z,101916.93
2018-05-26T05:03:42.701Z,101926.56
2018-05-26T05:06:15.776Z,101924.84
2018-05-26T05:08:43.873Z,101922.95
2018-05-26T05:11:12.446Z,101924.42
2018-05-26T05:13:40.606Z,101928.40
2018-05-26T05:16:08.713Z,101923.81
2018-05-26T05:18:36.835Z,101924.95
2018-05-26T05:21:05.942Z,101919.27
2018-05-26T05:23:34.960Z,101926.64
2018-05-26T05:26:03.640Z,101926.32
2018-05-26T05:28:32.249Z,101929.26
2018-05-26T05:31:00.389Z,101937.39
2018-05-26T05:33:28.499Z,101937.28
2018-05-26T05:35:56.593Z,101941.97
2018-05-26T05:38:25.025Z,101944.12
2018-05-26T05:40:53.178Z,101934.81
2018-05-26T05:43:21.590Z,101941.47
2018-05-26T05:45:54.701Z,101935.13
2018-05-26T05:48:22.801Z,101933.16
2018-05-26T05:50:50.924Z,101934.56
2018-05-26T05:53:19.901Z,101944.30
2018-05-26T05:55:48.056Z,101948.84
2018-05-26T05:58:16.169Z,101947.97
2018-05-26T06:00:44.315Z,101950.83
2018-05-26T06:03:12.478Z,101951.87
2018-05-26T06:05:40.584Z,101951.61
2018-05-26T06:08:08.698Z,101960.67
2018-05-26T06:10:36.824Z,101960.91
2018-05-26T06:13:05.859Z,101962.59
2018-05-26T06:15:33.988Z,101962.06
2018-05-26T06:18:02.470Z,101962.92
2018-05-26T06:20:30.569Z,101955.93
2018-05-26T06:22:58.721Z,101962.92
2018-05-26T06:25:26.859Z,101965.33
2018-05-26T06:27:55.480Z,101958.63
2018-05-26T06:30:24.390Z,101968.16
2018-05-26T06:32:53.052Z,101963.56
2018-05-26T06:35:21.154Z,101966.17
2018-05-26T06:37:49.255Z,101964.00
2018-05-26T06:40:17.381Z,101962.20
2018-05-26T06:42:45.491Z,101955.40
2018-05-26T06:45:13.700Z,101961.06
2018-05-26T06:47:41.838Z,101963.05
2018-05-26T06:50:10.440Z,101968.86
2018-05-26T06:52:39.425Z,101966.86
2018-05-26T06:55:07.549Z,101962.44
2018-05-26T06:57:35.672Z,101959.06
2018-05-26T07:00:03.838Z,101956.33
2018-05-26T07:02:31.965Z,101951.27
2018-05-26T07:05:00.116Z,101960.92
2018-05-26T07:07:28.221Z,101954.00
2018-05-26T07:09:56.370Z,101960.48
2018-05-26T07:12:24.479Z,101958.02
2018-05-26T07:14:52.584Z,101961.70
2018-05-26T07:17:22.274Z,101960.98
2018-05-26T07:19:50.886Z,101957.30
2018-05-26T07:22:19.013Z,101954.70
2018-05-26T07:24:47.217Z,101958.47
2018-05-26T07:27:15.399Z,101956.13
2018-05-26T07:29:43.495Z,101964.67
2018-05-26T07:32:11.880Z,101955.93
2018-05-26T07:34:39.980Z,101959.63
2018-05-26T07:37:08.400Z,101955.05
2018-05-26T07:39:36.564Z,101953.47
2018-05-26T07:42:04.752Z,101951.28
2018-05-26T07:44:33.372Z,101954.37
2018-05-26T07:47:01.512Z,101955.87
2018-05-26T07:49:29.624Z,101965.98
2018-05-26T07:51:57.777Z,101958.97
2018-05-26T07:54:26.766Z,101961.06
2018-05-26T07:56:54.925Z,101966.05
2018-05-26T07:59:23.030Z,101964.88
2018-05-26T08:01:51.180Z,101972.58
2018-05-26T08:04:19.341Z,101973.31
2018-05-26T08:06:47.444Z,101971.94
2018-05-26T08:09:16.468Z,101970.56
2018-05-26T08:11:44.583Z,101968.13
2018-05-26T08:14:12.690Z,101975.47
2018-05-26T08:16:40.828Z,101968.81
2018-05-26T08:19:08.973Z,101976.58
2018-05-26T08:21:37.075Z,101978.81
2018-05-26T08:24:05.178Z,101979.73
2018-05-26T08:26:33.341Z,101971.95
2018-05-26T08:29:01.442Z,101978.81
2018-05-26T08:31:30.491Z,101976.94
2018-05-26T08:33:58.617Z,101972.08
2018-05-26T08:36:26.759Z,101978.91
2018-05-26T08:38:54.884Z,101980.76
2018-05-26T08:41:23.014Z,101984.52
2018-05-26T08:43:51.936Z,101985.40
2018-05-26T08:46:20.043Z,101980.68
2018-05-26T08:48:48.222Z,101984.57
2018-05-26T08:51:16.321Z,101982.28
2018-05-26T08:53:44.416Z,101986.45
2018-05-26T08:56:12.535Z,101989.61
2018-05-26T08:58:40.661Z,101997.53
2018-05-26T09:01:09.568Z,101995.60
2018-05-26T09:03:37.711Z,101978.87
2018-05-26T09:06:05.817Z,101998.77
2018-05-26T09:08:33.952Z,101992.44
2018-05-26T09:11:02.065Z,101990.13
2018-05-26T09:13:31.015Z,101995.47
2018-05-26T09:15:59.163Z,101999.50
2018-05-26T09:18:27.249Z,101996.58
2018-05-26T09:20:55.359Z,102003.64
2018-05-26T09:23:24.229Z,101995.06
2018-05-26T09:25:52.351Z,101996.90
2018-05-26T09:28:20.475Z,101982.82
2018-05-26T09:30:48.624Z,101988.51
2018-05-26T09:33:16.735Z,101989.31
2018-05-26T09:35:45.403Z,101989.84
2018-05-26T09:38:13.556Z,101987.18
2018-05-26T09:40:41.708Z,101994.38
2018-05-26T09:43:10.097Z,101988.95
2018-05-26T09:45:43.829Z,101981.47
2018-05-26T09:48:11.928Z,101984.42
2018-05-26T09:50:40.039Z,101985.66
2018-05-26T09:53:08.156Z,101981.77
2018-05-26T09:55:36.259Z,101988.17
2018-05-26T09:58:04.389Z,101994.16
2018-05-26T10:00:32.501Z,102001.73
2018-05-26T10:03:00.630Z,101991.36
2018-05-26T10:05:28.759Z,101992.20
2018-05-26T10:07:56.861Z,101989.91
2018-05-26T10:10:24.981Z,101994.31
2018-05-26T10:12:53.089Z,101986.66
2018-05-26T10:15:21.194Z,101997.99
2018-05-26T10:17:49.334Z,101995.88
2018-05-26T10:20:17.708Z,101990.33
2018-05-26T10:22:45.821Z,101985.91
2018-05-26T10:25:14.029Z,101990.38
2018-05-26T10:27:42.129Z,101995.41
2018-05-26T10:30:10.257Z,101990.95
2018-05-26T10:32:38.406Z,101992.58
2018-05-26T10:35:06.505Z,101993.09
2018-05-26T10:37:34.613Z,101988.83
2018-05-26T10:40:02.792Z,101993.83
2018-05-26T10:42:30.895Z,101991.01
2018-05-26T10:44:58.999Z,101992.59
2018-05-26T10:47:28.009Z,101991.78
2018-05-26T10:49:56.124Z,101992.87
2018-05-26T10:52:24.229Z,101989.05
2018-05-26T10:54:52.329Z,101989.38
2018-05-26T10:57:20.449Z,101995.02
2018-05-26T10:59:48.613Z,101994.55
2018-05-26T11:02:16.729Z,101990.20
2018-05-26T11:04:50.447Z,101998.01
2018-05-26T11:07:18.549Z,101996.06
2018-05-26T11:09:46.654Z,101994.55
2018-05-26T11:12:14.801Z,101996.39
2018-05-26T11:14:42.947Z,101993.03
2018-05-26T11:17:16.618Z,101996.48
2018-05-26T11:19:50.162Z,101996.67
2018-05-26T11:22:18.798Z,101996.59
2018-05-26T11:24:46.927Z,101990.38
2018-05-26T11:27:15.070Z,101977.69
2018-05-26T11:29:43.189Z,101988.95
2018-05-26T11:32:11.305Z,101986.17
2018-05-26T11:34:39.428Z,101983.56
2018-05-26T11:37:08.209Z,101979.96
2018-05-26T11:39:36.320Z,101976.47
2018-05-26T11:42:04.447Z,101988.38
2018-05-26T11:44:33.350Z,101981.48
2018-05-26T11:47:01.447Z,101981.05
2018-05-26T11:49:29.561Z,101987.55
2018-05-26T11:51:58.249Z,101976.70
2018-05-26T11:54:26.361Z,101974.09
2018-05-26T11:56:54.469Z,101977.73
2018-05-26T11:59:22.641Z,101974.00
2018-05-26T12:01:51.174Z,101962.63
2018-05-26T12:04:19.264Z,101972.08
2018-05-26T12:06:47.349Z,101966.16
2018-05-26T12:09:15.469Z,101966.15
2018-05-26T12:11:43.611Z,101964.02
2018-05-26T12:14:11.701Z,101960.20
2018-05-26T12:16:40.024Z,101961.17
2018-05-26T12:19:08.172Z,101961.49
2018-05-26T12:21:36.288Z,101961.66
2018-05-26T12:24:04.787Z,101953.47
2018-05-26T12:26:33.249Z,101955.46
2018-05-26T12:29:06.989Z,101956.98
2018-05-26T12:31:40.513Z,101962.27
2018-05-26T12:34:08.649Z,101961.01
2018-05-26T12:36:36.767Z,101965.66
2018-05-26T12:39:05.653Z,101959.20
2018-05-26T12:41:34.404Z,101956.66
2018-05-26T12:44:02.593Z,101962.06
2018-05-26T12:46:30.689Z,101961.73
2018-05-26T12:48:58.917Z,101959.91
2018-05-26T12:51:27.052Z,101953.92
2018-05-26T12:53:55.153Z,101963.12
2018-05-26T12:56:28.853Z,101958.00
2018-05-26T12:58:56.991Z,101951.84
2018-05-26T13:01:25.094Z,101959.64
2018-05-26T13:03:54.890Z,101958.33
2018-05-26T13:06:23.041Z,101957.08
2018-05-26T13:08:51.231Z,101953.08
2018-05-26T13:11:19.308Z,101956.04
2018-05-26T13:13:47.441Z,101955.55
2018-05-26T13:16:15.668Z,101956.28
2018-05-26T13:18:49.445Z,101953.20
2018-05-26T13:21:17.585Z,101950.79
2018-05-26T13:23:45.742Z,101950.48
2018-05-26T13:26:14.728Z,101949.41
2018-05-26T13:28:42.847Z,101946.11
2018-05-26T13:31:10.953Z,101967.56
2018-05-26T13:46:39.385Z,101937.77
2018-05-26T13:49:07.508Z,101933.47
2018-05-26T13:51:36.190Z,101931.52
2018-05-26T13:54:04.316Z,101935.94
2018-05-26T13:56:32.482Z,101934.81
2018-05-26T13:59:00.589Z,101931.84
2018-05-26T14:01:28.713Z,101925.66
2018-05-26T14:03:56.829Z,101923.31
2018-05-26T14:06:24.977Z,101930.95
2018-05-26T14:08:53.105Z,101928.55
2018-05-26T14:11:21.239Z,101929.58
2018-05-26T14:13:50.079Z,101923.27
2018-05-26T14:16:18.220Z,101922.44
2018-05-26T14:18:47.863Z,101912.84
2018-05-26T14:21:16.197Z,101926.71
2018-05-26T14:23:44.329Z,101925.09
2018-05-26T14:26:13.045Z,101918.98
2018-05-26T14:28:41.157Z,101926.28
2018-05-26T14:31:09.783Z,101918.46
2018-05-26T14:33:38.157Z,101919.33
2018-05-26T14:36:06.318Z,101922.33
2018-05-26T14:38:34.441Z,101916.73
2018-05-26T14:54:02.564Z,101899.09
2018-05-26T14:56:31.433Z,101898.72
2018-05-26T14:58:59.533Z,101909.26
2018-05-26T15:01:27.643Z,101910.92
2018-05-26T15:03:55.797Z,101902.13
2018-05-26T15:06:23.905Z,101903.62
2018-05-26T15:08:52.641Z,101897.91
2018-05-26T15:11:21.077Z,101897.63
2018-05-26T15:13:49.189Z,101901.49
2018-05-26T15:16:17.295Z,101898.44
2018-05-26T15:18:46.001Z,101896.49
2018-05-26T15:21:15.109Z,101894.75
2018-05-26T15:23:43.273Z,101897.17
2018-05-26T15:26:11.393Z,101889.80
2018-05-26T15:28:39.494Z,101892.81
2018-05-26T15:31:07.601Z,101896.02
2018-05-26T15:33:37.003Z,101889.98
2018-05-26T15:36:05.087Z,101883.48
2018-05-26T15:38:33.265Z,101890.06
2018-05-26T15:41:01.373Z,101882.75
2018-05-26T15:43:29.469Z,101886.79
2018-05-26T15:45:57.639Z,101883.92
2018-05-26T15:48:26.671Z,101884.24
2018-05-26T15:50:54.832Z,101880.77
2018-05-26T15:53:22.960Z,101879.01
2018-05-26T15:55:51.136Z,101877.63
2018-05-26T15:58:19.252Z,101869.47
2018-05-26T16:00:47.339Z,101880.80
2018-05-26T16:03:15.442Z,101881.86
2018-05-26T16:05:48.523Z,101885.28
2018-05-26T16:08:16.690Z,101879.44
2018-05-26T16:10:44.837Z,101877.76
2018-05-26T16:13:12.917Z,101878.73
2018-05-26T16:15:41.011Z,101879.22
2018-05-26T16:18:09.121Z,101869.22
2018-05-26T16:20:38.021Z,101873.09
2018-05-26T16:23:06.755Z,101874.46
2018-05-26T16:25:34.841Z,101866.78
2018-05-26T16:28:02.936Z,101866.41
2018-05-26T16:30:31.039Z,101877.20
2018-05-26T16:32:59.941Z,101870.32
2018-05-26T16:35:28.081Z,101870.98
2018-05-26T16:50:56.221Z,101862.89
2018-05-26T16:53:24.328Z,101866.75
2018-05-26T16:55:52.434Z,101860.26
2018-05-26T16:58:21.469Z,101868.34
2018-05-26T17:00:49.603Z,101864.55
2018-05-26T17:03:17.696Z,101861.21
2018-05-26T17:05:46.069Z,101864.75
2018-05-26T17:08:14.179Z,101858.89
2018-05-26T17:10:42.315Z,101857.88
2018-05-26T17:13:10.508Z,101858.94
2018-05-26T17:15:38.689Z,101855.09
2018-05-26T17:18:06.769Z,101852.91
2018-05-26T17:20:34.938Z,101856.47
2018-05-26T17:23:08.505Z,101852.12
2018-05-26T17:25:36.610Z,101848.16
2018-05-26T17:28:04.713Z,101849.05
2018-05-26T17:30:33.727Z,101848.95
2018-05-26T17:33:02.060Z,101850.16
2018-05-26T17:35:30.140Z,101856.09
2018-05-26T17:37:58.906Z,101847.84
2018-05-26T17:40:26.988Z,101853.92
2018-05-26T17:42:55.167Z,101853.18
2018-05-26T17:45:23.289Z,101844.98
2018-05-26T17:47:51.410Z,101853.66
2018-05-26T17:50:19.501Z,101847.55
2018-05-26T17:52:47.637Z,101850.05
2018-05-26T17:55:15.722Z,101850.78
2018-05-26T17:57:43.822Z,101844.95
2018-05-26T18:00:12.293Z,101845.91
2018-05-26T18:02:40.444Z,101847.45
2018-05-26T18:05:08.534Z,101847.34
2018-05-26T18:07:36.662Z,101846.22
2018-05-26T18:10:04.754Z,101855.22
2018-05-26T18:12:32.853Z,101856.38
2018-05-26T18:15:01.020Z,101847.74
2018-05-26T18:17:29.324Z,101854.08
2018-05-26T18:19:57.426Z,101851.85
2018-05-26T18:22:25.539Z,101853.25
2018-05-26T18:24:53.627Z,101855.80
2018-05-26T18:27:21.735Z,101857.95
2018-05-26T18:29:49.917Z,101867.03
2018-05-26T18:32:18.884Z,101865.66
2018-05-26T18:34:47.087Z,101867.46
2018-05-26T18:37:15.424Z,101859.14
2018-05-26T18:39:43.546Z,101869.79
2018-05-26T18:42:11.649Z,101870.27
2018-05-26T18:44:40.479Z,101870.78
2018-05-26T18:47:09.048Z,101868.62
2018-05-26T18:49:37.145Z,101867.23
2018-05-26T18:52:06.076Z,101872.84
2018-05-26T18:54:35.169Z,101868.19
2018-05-26T18:57:03.351Z,101869.30
2018-05-26T18:59:31.514Z,101878.48
2018-05-26T19:02:00.604Z,101877.26
2018-05-26T19:04:28.706Z,101882.22
2018-05-26T19:06:56.827Z,101879.78
2018-05-26T19:09:24.954Z,101880.03
2018-05-26T19:11:53.054Z,101885.20
2018-05-26T19:14:21.164Z,101884.41
2018-05-26T19:16:49.264Z,101884.41
2018-05-26T19:19:17.355Z,101881.33
2018-05-26T19:21:45.457Z,101881.36
2018-05-26T19:24:13.552Z,101884.97
2018-05-26T19:26:41.719Z,101881.34
2018-05-26T19:29:09.795Z,101881.22
2018-05-26T19:31:38.674Z,101877.87
2018-05-26T19:34:07.446Z,101878.42
2018-05-26T19:36:35.546Z,101880.11
2018-05-26T19:39:04.370Z,101883.84
2018-05-26T19:41:32.470Z,101890.00
2018-05-26T19:44:01.338Z,101888.45
2018-05-26T19:46:29.406Z,101890.41
2018-05-26T19:48:57.512Z,101889.18
2018-05-26T19:51:25.631Z,101884.78
2018-05-26T19:53:58.690Z,101892.14
2018-05-26T19:56:26.826Z,101891.50
2018-05-26T19:58:55.410Z,101901.88
2018-05-26T20:01:23.542Z,101901.33
2018-05-26T20:03:51.664Z,101898.88
2018-05-26T20:06:19.756Z,101898.66
2018-05-26T20:08:49.185Z,101904.09
2018-05-26T20:11:17.504Z,101902.31
2018-05-26T20:13:45.625Z,101904.55
2018-05-26T20:16:13.737Z,101910.34
2018-05-26T20:18:41.862Z,101914.20
2018-05-26T20:21:10.018Z,101907.09
2018-05-26T20:23:38.167Z,101918.04
2018-05-26T20:26:06.398Z,101919.28
2018-05-26T20:28:34.734Z,101919.82
2018-05-26T20:31:02.848Z,101915.17
2018-05-26T20:33:32.674Z,101917.13
2018-05-26T20:36:03.490Z,101918.60
2018-05-26T20:38:34.748Z,101920.64
2018-05-26T20:49:59.987Z,101924.83
2018-05-26T20:52:28.106Z,101919.82
2018-05-26T20:54:56.452Z,101916.03
2018-05-26T20:57:25.302Z,101916.69
2018-05-26T20:59:53.483Z,101915.61
2018-05-26T21:02:21.533Z,101918.19
2018-05-26T21:04:49.676Z,101915.16
2018-05-26T21:07:17.806Z,101914.25
2018-05-26T21:09:46.177Z,101914.69
2018-05-26T21:12:14.288Z,101912.31
2018-05-26T21:14:42.737Z,101916.30
2018-05-26T21:17:10.954Z,101918.98
2018-05-26T21:19:39.058Z,101920.41
2018-05-26T21:22:07.195Z,101923.39
2018-05-26T21:24:35.300Z,101923.91
2018-05-26T21:27:03.449Z,101921.31
2018-05-26T21:29:31.588Z,101919.23
2018-05-26T21:31:59.694Z,101915.31
2018-05-26T21:34:27.844Z,101923.54
2018-05-26T21:36:55.941Z,101922.12
2018-05-26T21:39:24.044Z,101922.58
2018-05-26T21:41:52.170Z,101916.20
2018-05-26T21:44:20.273Z,101923.86
2018-05-26T21:46:48.362Z,101924.75
2018-05-26T21:49:16.560Z,101921.35
2018-05-26T21:51:44.657Z,101918.47
2018-05-26T21:54:12.776Z,101913.27
2018-05-26T21:56:40.905Z,101918.03
2018-05-26T21:59:08.997Z,101920.49
2018-05-26T22:01:37.101Z,101921.61
2018-05-26T22:04:05.200Z,101922.38
2018-05-26T22:06:33.291Z,101922.69
2018-05-26T22:09:01.434Z,101927.52
2018-05-26T22:11:29.536Z,101922.61
2018-05-26T22:13:57.648Z,101927.95
2018-05-26T22:16:25.753Z,101928.55
2018-05-26T22:18:53.896Z,101929.71
2018-05-26T22:21:21.989Z,101928.59
2018-05-26T22:23:50.949Z,101932.70
2018-05-26T22:26:19.050Z,101937.09
2018-05-26T22:28:47.174Z,101933.20
2018-05-26T22:31:15.275Z,101938.63
2018-05-26T22:33:43.374Z,101932.41
2018-05-26T22:36:11.482Z,101927.06
2018-05-26T22:38:39.576Z,101933.88
2018-05-26T22:41:07.698Z,101928.81
2018-05-26T22:43:35.814Z,101922.83
2018-05-26T22:46:03.944Z,101928.67
2018-05-26T22:48:32.054Z,101929.58
2018-05-26T22:51:00.465Z,101927.56
2018-05-26T22:53:28.609Z,101927.00
2018-05-26T22:55:56.717Z,101929.45
2018-05-26T22:58:24.828Z,101925.42
2018-05-26T23:00:52.934Z,101919.26
2018-05-26T23:03:21.056Z,101916.31
2018-05-26T23:05:49.296Z,101918.23
2018-05-26T23:08:17.345Z,101919.84
2018-05-26T23:10:45.470Z,101917.19
2018-05-26T23:13:13.566Z,101918.63
2018-05-26T23:15:41.660Z,101917.41
2018-05-26T23:18:09.774Z,101920.44
2018-05-26T23:20:37.876Z,101923.29
2018-05-26T23:23:05.981Z,101917.69
2018-05-26T23:25:34.097Z,101918.55
2018-05-26T23:28:02.194Z,101917.42
2018-05-26T23:30:30.290Z,101923.67
2018-05-26T23:32:58.562Z,101920.43
2018-05-26T23:35:26.662Z,101920.19
2018-05-26T23:37:54.732Z,101917.59
2018-05-26T23:40:22.856Z,101916.57
2018-05-26T23:42:50.948Z,101907.26
2018-05-26T23:45:19.068Z,101908.77
2018-05-26T23:47:47.218Z,101899.53
2018-05-26T23:50:15.353Z,101899.08
2018-05-26T23:52:43.456Z,101898.34
2018-05-26T23:55:11.572Z,101896.25
2018-05-26T23:57:39.668Z,101897.00
